GOOY

Details ICAO GOOY (DKR)
Name Dakar - Leopold Sedar Senghor Intl
Region Senegal
Timezone Africa/Dakar (UTC+0.0)
Plans Departing 2000
Arriving 2086
Stats Elevation 84 ft / 26 m (AMSL)
Location 14.740100° -17.490400°
Runways 2
Magnetic Variation 6.631° W
Sunrise 2024-04-21 06:53:21 UTC / 2024-04-21 06:53:21 Local
Sunset 2024-04-21 19:26:03 UTC / 2024-04-21 19:26:03 Local
Advertisement - Login to hide

Runways

ID Width Length Bearing (true/mag) Surface Threshold Overrun Markings Lighting
03 98 ft / 30 m 4,916 ft / 1,498 m 22.33° / 28.96° ASPHALT 0 ft / 0 m 98 ft / 30 m APP
18 148 ft / 45 m 11,483 ft / 3,500 m 172.61° / 179.24° ASPHALT 525 ft / 160 m 220 ft / 67 m APP EDGE THRESHOLD
21 98 ft / 30 m 4,916 ft / 1,498 m 202.33° / 208.96° ASPHALT 0 ft / 0 m 1,591 ft / 485 m APP
36 148 ft / 45 m 11,483 ft / 3,500 m 352.61° / 359.24° ASPHALT 0 ft / 0 m 213 ft / 65 m PREC-APP EDGE THRESHOLD ALSF-I

Approach Navaids

Runway Type Ident Frequency Range Bearing (true/mag) Slope Elevation
36 MM MM - - 352.57° / 359.20° - 144 ft / 44 m (AMSL)
36 DME YF 110.30 MHz 18 nm / 33 km - - 73 ft / 22 m (AMSL)
36 LOC-ILS YF 110.30 MHz 18 nm / 33 km 352.33° / 358.96° - 65 ft / 20 m (AMSL)
36 GS YF 110.30 MHz 10 nm / 19 km 353.14° / 359.77° 3.01° 73 ft / 22 m (AMSL)

Map

Weather


0- 5 10 15 20 25 30 35+ Temperature / °C

Clouds and Precipitation
Forecast for 2024-04-15 18:00 UTC. Updated 6 days ago

Ground ~20,000 ft ~40,000 ft Winds

METAR

Not found

TAF

TAF GOOY 210500Z 2106/2212 34012KT CAVOK= TAF GOBD 210500Z 2106/2212 36015KT 8000 BKN006 BECMG 2107/2109 SCT012

Frequencies

Recorded 121.30 MHz DAKAR ATIS
Approach 120.50 MHz DAKAR CON
Tower 118.10 MHz DAKAR TWR
Warning: Do not use this data for real-world aviation or navigation. No guarantee of current accuracy is given.